Palmyra, Tennessee
Current Conditions -  °F | °C
As of 8:52 PM on Thursday 18 Dec 2014 (Local Time) from KCKV Reporting Station
Overcast Overcast  
Wind Chill: 35°   Ceiling: 5500
Heat Index: 35°   Visibility: 9mi
Dew Point: 30°   Wind: 3mph
Humidity: 82%   Direction: 360°N
Pressure: 30.24"   Gusts: NA
Location:  36.44°N, 87.49°W
Report Text: KCKV 190252Z AUTO 36003KT 9SM SCT045 OVC055 02/M01 A3024 RMK AO2 SLP245 T00171011 51008
Loading
Personal Weather Stations






























Interactive Weather Map New forecast layout! Learn more

10-Day Weather Forecast

Advertisements
Track Severe Weather on mobile